Current Weather

Khartoum

Khartoum, Sudan (HSSK)

Report from: Monday, May 23, 2022 8:30 AM UTC
Current time: Monday, May 23, 2022 8:56 AM UTC

Nearby weather
Weather history
Weather forecast

Temperature34.0°C (93.2°F)
Heat index31.5°C (88.6°F)
Dew point-2.0°C (28.4°F)
Winds 15 kts (7.7 m/s, 17.3 mph) North (350°)
Clouds Sky clear
Altimeter29.83 in.Hg (1010 mB)
Relative humidity10 %
Density altitude2,356 ft. (718 m)
Remarks Ceiling and visibility OK
No significant changes expected in the next two hours
Flight conditions Visual Meteorological Conditions
Raw dataHSSK 230830Z 35015KT CAVOK 34/M02 Q1010 NOSIG
An error has occurred. This application may no longer respond until reloaded. Reload 🗙